createdAt,value
2019-03-31T00:00:20.970Z,25.37
2019-03-31T00:02:49.425Z,31.15
2019-03-31T00:05:17.827Z,31.82
2019-03-31T00:07:46.254Z,28.05
2019-03-31T00:10:14.709Z,20.45
2019-03-31T00:12:43.138Z,19.92
2019-03-31T00:15:11.583Z,19.60
2019-03-31T00:17:40.006Z,18.73
2019-03-31T00:20:08.441Z,17.70
2019-03-31T00:22:36.848Z,17.98
2019-03-31T00:25:06.165Z,14.47
2019-03-31T00:27:34.612Z,19.85
2019-03-31T00:30:03.145Z,18.10
2019-03-31T00:32:31.573Z,18.73
2019-03-31T00:35:00.012Z,20.35
2019-03-31T00:37:28.437Z,23.00
2019-03-31T00:39:56.909Z,24.57
2019-03-31T00:42:25.335Z,21.55
2019-03-31T00:44:53.796Z,22.93
2019-03-31T00:47:22.212Z,20.82
2019-03-31T00:49:50.697Z,25.30
2019-03-31T00:52:19.118Z,23.20
2019-03-31T00:54:47.546Z,23.85
2019-03-31T00:57:16.004Z,18.20
2019-03-31T00:59:44.418Z,22.37
2019-03-31T01:02:14.592Z,20.27
2019-03-31T01:04:43.265Z,21.30
2019-03-31T01:07:11.778Z,25.15
2019-03-31T01:09:40.470Z,21.05
2019-03-31T01:12:08.930Z,23.25
2019-03-31T01:14:38.377Z,17.32
2019-03-31T01:17:08.464Z,17.85
2019-03-31T01:19:37.233Z,18.25
2019-03-31T01:22:05.687Z,23.92
2019-03-31T01:24:34.111Z,19.40
2019-03-31T01:27:03.103Z,19.67
2019-03-31T01:29:31.541Z,22.20
2019-03-31T01:31:59.989Z,22.32
2019-03-31T01:34:28.418Z,16.12
2019-03-31T01:36:56.872Z,19.12
2019-03-31T01:39:26.956Z,21.85
2019-03-31T01:41:55.385Z,16.42
2019-03-31T01:44:23.814Z,22.25
2019-03-31T01:46:52.274Z,16.05
2019-03-31T01:49:20.745Z,20.50
2019-03-31T01:51:49.203Z,18.57
2019-03-31T01:54:17.620Z,17.17
2019-03-31T01:56:46.082Z,17.12
2019-03-31T01:59:14.579Z,17.87
2019-03-31T02:01:43.031Z,18.20
2019-03-31T02:04:11.449Z,20.92
2019-03-31T02:06:39.901Z,15.23
2019-03-31T02:09:08.343Z,13.43
2019-03-31T02:11:36.801Z,17.62
2019-03-31T02:14:05.222Z,16.97
2019-03-31T02:16:33.681Z,14.75
2019-03-31T02:19:02.114Z,18.02
2019-03-31T02:21:30.581Z,15.75
2019-03-31T02:23:59.077Z,18.10
2019-03-31T02:26:27.532Z,17.23
2019-03-31T02:28:55.986Z,16.27
2019-03-31T02:31:24.447Z,18.95
2019-03-31T02:33:52.991Z,15.72
2019-03-31T02:36:21.527Z,18.75
2019-03-31T02:38:49.938Z,18.67
2019-03-31T02:41:18.459Z,20.00
2019-03-31T02:43:46.906Z,18.40
2019-03-31T02:46:16.302Z,20.27
2019-03-31T02:48:44.799Z,25.25
2019-03-31T02:51:13.294Z,20.43
2019-03-31T02:53:41.920Z,20.27
2019-03-31T02:56:10.686Z,19.48
2019-03-31T02:58:39.128Z,19.40
2019-03-31T03:01:07.556Z,17.67
2019-03-31T03:03:36.066Z,14.73
2019-03-31T03:06:04.518Z,17.17
2019-03-31T03:08:32.951Z,15.20
2019-03-31T03:11:01.400Z,20.52
2019-03-31T03:13:30.086Z,21.52
2019-03-31T03:16:10.861Z,16.82
2019-03-31T03:18:39.765Z,18.25
2019-03-31T03:21:08.236Z,18.30
2019-03-31T03:23:36.663Z,17.73
2019-03-31T03:26:05.119Z,18.10
2019-03-31T03:28:33.552Z,20.05
2019-03-31T03:31:02.365Z,19.52
2019-03-31T03:33:30.912Z,19.10
2019-03-31T03:35:59.346Z,18.15
2019-03-31T03:38:27.782Z,17.42
2019-03-31T03:40:56.237Z,16.90
2019-03-31T03:43:24.677Z,16.48
2019-03-31T03:45:53.143Z,17.95
2019-03-31T03:48:21.565Z,18.87
2019-03-31T03:50:50.136Z,14.87
2019-03-31T03:53:18.714Z,14.68
2019-03-31T03:55:47.162Z,19.17
2019-03-31T03:58:15.589Z,18.23
2019-03-31T04:00:44.166Z,18.75
2019-03-31T04:03:29.021Z,15.43
2019-03-31T04:05:42.788Z,16.37
2019-03-31T04:08:11.274Z,15.90
2019-03-31T04:10:45.922Z,16.20
2019-03-31T04:13:14.338Z,20.43
2019-03-31T04:15:42.871Z,18.87
2019-03-31T04:18:11.293Z,20.68
2019-03-31T04:20:39.885Z,21.02
2019-03-31T04:23:08.381Z,17.05
2019-03-31T04:25:36.812Z,24.05
2019-03-31T04:28:05.234Z,19.67
2019-03-31T04:30:33.681Z,17.95
2019-03-31T04:33:02.192Z,17.00
2019-03-31T04:35:30.610Z,17.10
2019-03-31T04:37:59.060Z,17.85
2019-03-31T04:40:27.470Z,18.62
2019-03-31T04:42:55.912Z,15.20
2019-03-31T04:45:24.370Z,21.07
2019-03-31T04:47:52.832Z,20.27
2019-03-31T04:50:21.304Z,17.07
2019-03-31T04:52:49.737Z,19.12
2019-03-31T04:55:18.169Z,17.70
2019-03-31T04:57:46.629Z,19.17
2019-03-31T05:00:15.048Z,19.17
2019-03-31T05:02:43.484Z,16.93
2019-03-31T05:05:11.907Z,17.37
2019-03-31T05:07:40.367Z,20.68
2019-03-31T05:10:08.782Z,21.65
2019-03-31T05:12:37.247Z,18.80
2019-03-31T05:15:05.737Z,19.45
2019-03-31T05:17:35.773Z,16.77
2019-03-31T05:20:05.503Z,18.00
2019-03-31T05:22:33.946Z,19.07
2019-03-31T05:25:02.377Z,17.23
2019-03-31T05:27:30.816Z,22.75
2019-03-31T05:29:59.249Z,17.50
2019-03-31T05:32:27.689Z,17.05
2019-03-31T05:34:56.118Z,19.67
2019-03-31T05:37:24.554Z,18.48
2019-03-31T05:39:53.043Z,18.40
2019-03-31T05:42:21.488Z,18.67
2019-03-31T05:44:49.981Z,15.53
2019-03-31T05:47:18.373Z,18.40
2019-03-31T05:49:46.793Z,15.98
2019-03-31T05:52:15.247Z,15.63
2019-03-31T05:54:43.660Z,18.70
2019-03-31T05:57:12.108Z,15.95
2019-03-31T05:59:40.529Z,15.88
2019-03-31T06:02:08.983Z,27.20
2019-03-31T06:04:37.406Z,36.63
2019-03-31T06:07:05.849Z,19.07
2019-03-31T06:09:34.317Z,19.42
2019-03-31T06:12:02.729Z,17.65
2019-03-31T06:14:31.161Z,20.15
2019-03-31T06:16:59.597Z,20.17
2019-03-31T06:19:28.029Z,18.25
2019-03-31T06:21:56.472Z,17.32
2019-03-31T06:24:24.890Z,17.00
2019-03-31T06:26:53.328Z,18.45
2019-03-31T06:29:21.751Z,18.00
2019-03-31T06:31:50.209Z,16.25
2019-03-31T06:34:18.625Z,14.73
2019-03-31T06:36:47.081Z,14.43
2019-03-31T06:39:15.510Z,17.10
2019-03-31T06:41:43.960Z,17.00
2019-03-31T06:44:12.366Z,13.50
2019-03-31T06:46:40.878Z,19.02
2019-03-31T06:49:09.295Z,19.70
2019-03-31T06:51:37.737Z,18.62
2019-03-31T06:54:06.157Z,17.42
2019-03-31T06:56:34.574Z,19.17
2019-03-31T06:59:03.022Z,16.55
2019-03-31T07:01:31.446Z,17.75
2019-03-31T07:03:59.899Z,12.85
2019-03-31T07:06:28.340Z,17.37
2019-03-31T07:08:56.793Z,15.25
2019-03-31T07:11:25.221Z,12.82
2019-03-31T07:13:53.660Z,17.87
2019-03-31T07:16:22.097Z,15.48
2019-03-31T07:18:50.558Z,14.23
2019-03-31T07:21:18.975Z,12.05
2019-03-31T07:23:47.433Z,17.02
2019-03-31T07:26:15.886Z,15.58
2019-03-31T07:28:44.325Z,21.35
2019-03-31T07:31:12.749Z,16.50
2019-03-31T07:33:41.204Z,16.32
2019-03-31T07:36:09.618Z,16.27
2019-03-31T07:38:39.354Z,15.98
2019-03-31T07:41:13.115Z,15.98
2019-03-31T07:43:38.194Z,23.40
2019-03-31T07:46:06.611Z,17.75
2019-03-31T07:48:35.067Z,20.02
2019-03-31T07:51:03.496Z,17.50
2019-03-31T07:53:31.952Z,17.10
2019-03-31T07:56:00.404Z,17.60
2019-03-31T07:58:28.885Z,19.32
2019-03-31T08:00:57.279Z,14.50
2019-03-31T08:03:25.717Z,18.42
2019-03-31T08:05:54.169Z,16.65
2019-03-31T08:08:22.625Z,16.07
2019-03-31T08:10:51.061Z,16.07
2019-03-31T08:13:19.490Z,16.05
2019-03-31T08:15:47.942Z,31.30
2019-03-31T08:18:16.393Z,24.45
2019-03-31T08:20:44.820Z,23.02
2019-03-31T08:23:13.365Z,17.37
2019-03-31T08:25:41.788Z,17.85
2019-03-31T08:28:10.241Z,18.32
2019-03-31T08:30:38.869Z,23.85
2019-03-31T08:33:07.368Z,21.57
2019-03-31T08:35:46.619Z,21.48
2019-03-31T08:38:05.979Z,22.70
2019-03-31T08:40:34.415Z,19.07
2019-03-31T08:43:03.860Z,17.60
2019-03-31T08:45:32.310Z,21.35
2019-03-31T08:48:00.774Z,19.92
2019-03-31T08:50:29.244Z,21.85
2019-03-31T08:52:57.697Z,18.00
2019-03-31T08:55:26.109Z,23.30
2019-03-31T08:57:54.566Z,20.48
2019-03-31T09:00:24.636Z,17.75
2019-03-31T09:02:53.115Z,24.00
2019-03-31T09:05:21.606Z,21.35
2019-03-31T09:07:50.081Z,21.60
2019-03-31T09:10:18.529Z,38.10
2019-03-31T09:12:48.689Z,32.38
2019-03-31T09:15:16.888Z,45.45
2019-03-31T09:17:45.128Z,32.13
2019-03-31T09:20:13.406Z,25.90
2019-03-31T09:22:41.644Z,21.52
2019-03-31T09:25:09.990Z,19.98
2019-03-31T09:27:38.281Z,19.02
2019-03-31T09:30:07.933Z,19.67
2019-03-31T09:32:36.620Z,19.05
2019-03-31T09:35:05.999Z,17.00
2019-03-31T09:37:36.279Z,15.70
2019-03-31T09:40:05.948Z,20.88
2019-03-31T09:42:34.297Z,18.25
2019-03-31T09:45:04.393Z,19.95
2019-03-31T09:47:32.653Z,18.92
2019-03-31T09:50:01.977Z,19.60
2019-03-31T09:52:30.220Z,21.27
2019-03-31T09:54:58.594Z,24.00
2019-03-31T09:57:27.016Z,18.90
2019-03-31T09:59:55.269Z,22.45
2019-03-31T10:02:23.514Z,21.95
2019-03-31T10:04:51.865Z,21.95
2019-03-31T10:07:23.673Z,20.02
2019-03-31T10:09:50.233Z,23.38
2019-03-31T10:12:18.485Z,25.15
2019-03-31T10:14:46.784Z,22.75
2019-03-31T10:17:15.079Z,20.62
2019-03-31T10:19:43.512Z,24.85
2019-03-31T10:22:11.796Z,21.10
2019-03-31T10:24:40.112Z,26.52
2019-03-31T10:27:08.454Z,21.05
2019-03-31T10:29:36.728Z,22.98
2019-03-31T10:32:04.992Z,20.37
2019-03-31T10:34:33.848Z,25.02
2019-03-31T10:37:02.176Z,24.50
2019-03-31T10:39:30.455Z,23.47
2019-03-31T10:41:58.699Z,30.52
2019-03-31T10:44:27.067Z,21.60
2019-03-31T10:46:58.307Z,18.73
2019-03-31T10:49:25.301Z,19.07
2019-03-31T10:51:53.729Z,24.15
2019-03-31T10:54:22.289Z,19.52
2019-03-31T10:56:50.640Z,20.82
2019-03-31T10:59:18.913Z,19.73
2019-03-31T11:01:47.195Z,15.83
2019-03-31T11:04:15.497Z,24.32
2019-03-31T11:06:58.046Z,21.55
2019-03-31T11:09:13.741Z,21.93
2019-03-31T11:11:42.033Z,20.45
2019-03-31T11:14:10.306Z,20.82
2019-03-31T11:16:38.658Z,19.67
2019-03-31T11:19:07.009Z,21.30
2019-03-31T11:21:40.192Z,21.90
2019-03-31T11:24:08.066Z,23.10
2019-03-31T11:26:36.292Z,43.78
2019-03-31T11:29:04.596Z,30.88
2019-03-31T11:31:32.860Z,28.35
2019-03-31T11:34:01.156Z,27.22
2019-03-31T11:36:29.413Z,30.32
2019-03-31T11:38:58.740Z,30.40
2019-03-31T11:41:27.007Z,24.50
2019-03-31T11:43:55.296Z,25.12
2019-03-31T11:46:23.536Z,32.25
2019-03-31T11:48:51.783Z,26.52
2019-03-31T11:51:20.049Z,25.95
2019-03-31T11:53:48.282Z,31.93
2019-03-31T11:56:16.549Z,26.00
2019-03-31T11:58:45.073Z,28.15
2019-03-31T12:01:13.369Z,32.50
2019-03-31T12:03:41.622Z,31.12
2019-03-31T12:06:11.325Z,32.75
2019-03-31T12:08:39.685Z,37.28
2019-03-31T12:11:07.925Z,33.67
2019-03-31T12:13:36.173Z,32.80
2019-03-31T12:16:04.441Z,36.45
2019-03-31T12:18:32.702Z,39.58
2019-03-31T12:21:00.953Z,34.30
2019-03-31T12:23:29.191Z,35.35
2019-03-31T12:25:57.486Z,35.17
2019-03-31T12:28:25.730Z,30.23
2019-03-31T12:30:53.998Z,29.72
2019-03-31T12:33:22.323Z,30.97
2019-03-31T12:35:50.636Z,30.23
2019-03-31T12:38:18.871Z,29.45
2019-03-31T12:40:47.144Z,29.20
2019-03-31T12:43:15.532Z,29.05
2019-03-31T12:45:43.796Z,26.35
2019-03-31T12:48:12.025Z,29.80
2019-03-31T12:50:40.320Z,28.23
2019-03-31T12:53:08.568Z,31.60
2019-03-31T12:55:36.849Z,32.38
2019-03-31T12:58:05.096Z,30.23
2019-03-31T13:00:33.352Z,30.15
2019-03-31T13:03:01.688Z,33.00
2019-03-31T13:05:29.917Z,31.60
2019-03-31T13:07:58.168Z,30.90
2019-03-31T13:10:26.437Z,32.20
2019-03-31T13:12:54.688Z,31.40
2019-03-31T13:15:22.993Z,32.35
2019-03-31T13:17:51.258Z,30.57
2019-03-31T13:20:19.524Z,36.98
2019-03-31T13:22:47.801Z,40.55
2019-03-31T13:25:16.160Z,34.00
2019-03-31T13:27:44.397Z,33.75
2019-03-31T13:30:14.322Z,35.08
2019-03-31T13:32:43.991Z,35.48
2019-03-31T13:35:12.477Z,37.60
2019-03-31T13:37:40.913Z,37.03
2019-03-31T13:40:09.373Z,37.90
2019-03-31T13:42:37.848Z,40.70
2019-03-31T13:45:06.881Z,38.85
2019-03-31T13:47:35.324Z,38.83
2019-03-31T13:50:06.495Z,42.33
2019-03-31T13:52:34.933Z,38.10
2019-03-31T13:55:05.921Z,41.23
2019-03-31T13:57:35.036Z,40.65
2019-03-31T14:00:05.451Z,50.55
2019-03-31T14:02:33.877Z,39.18
2019-03-31T14:05:02.337Z,35.70
2019-03-31T14:07:30.765Z,37.10
2019-03-31T14:09:59.200Z,35.28
2019-03-31T14:12:28.281Z,32.20
2019-03-31T14:14:56.757Z,34.60
2019-03-31T14:17:25.213Z,36.93
2019-03-31T14:19:53.630Z,33.67
2019-03-31T14:22:22.077Z,32.60
2019-03-31T14:24:50.506Z,34.03
2019-03-31T14:27:18.971Z,37.17
2019-03-31T14:29:47.390Z,34.65
2019-03-31T14:32:15.681Z,36.20
2019-03-31T14:34:43.970Z,38.50
2019-03-31T14:37:12.194Z,35.00
2019-03-31T14:39:40.503Z,36.20
2019-03-31T14:42:08.812Z,34.13
2019-03-31T14:44:37.052Z,38.85
2019-03-31T14:47:05.323Z,38.95
2019-03-31T14:49:33.612Z,37.80
2019-03-31T14:52:01.909Z,36.90
2019-03-31T14:54:30.157Z,43.42
2019-03-31T14:56:58.445Z,41.60
2019-03-31T14:59:27.045Z,36.17
2019-03-31T15:01:55.579Z,42.48
2019-03-31T15:04:24.088Z,41.53
2019-03-31T15:06:52.688Z,39.20
2019-03-31T15:09:21.473Z,40.05
2019-03-31T15:11:53.926Z,39.40
2019-03-31T15:14:22.554Z,41.60
2019-03-31T15:16:51.473Z,46.33
2019-03-31T15:19:20.337Z,44.38
2019-03-31T15:21:49.178Z,40.95
2019-03-31T15:24:17.774Z,39.38
2019-03-31T15:26:46.570Z,38.25
2019-03-31T15:29:15.316Z,42.27
2019-03-31T15:31:44.190Z,38.58
2019-03-31T15:34:12.858Z,39.95
2019-03-31T15:36:41.771Z,36.90
2019-03-31T15:39:10.647Z,41.28
2019-03-31T15:41:39.815Z,37.28
2019-03-31T15:44:08.591Z,39.05
2019-03-31T15:46:37.344Z,37.50
2019-03-31T15:49:06.977Z,35.23
2019-03-31T15:51:36.054Z,45.65
2019-03-31T15:54:05.150Z,51.35
2019-03-31T15:56:34.183Z,99.65
2019-03-31T15:59:03.162Z,62.38
2019-03-31T16:01:34.063Z,69.58
2019-03-31T16:04:03.129Z,96.37
2019-03-31T16:06:32.275Z,48.05
2019-03-31T16:09:00.746Z,42.23
2019-03-31T16:11:29.237Z,45.73
2019-03-31T16:13:57.669Z,46.05
2019-03-31T16:16:26.121Z,43.52
2019-03-31T16:18:54.618Z,47.50
2019-03-31T16:21:23.077Z,47.13
2019-03-31T16:23:51.510Z,45.40
2019-03-31T16:26:19.965Z,49.55
2019-03-31T16:28:48.392Z,50.05
2019-03-31T16:31:16.878Z,46.60
2019-03-31T16:33:45.424Z,52.40
2019-03-31T16:36:13.882Z,50.95
2019-03-31T16:38:42.418Z,52.25
2019-03-31T16:41:10.936Z,49.25
2019-03-31T16:43:39.357Z,48.17
2019-03-31T16:46:07.786Z,47.15
2019-03-31T16:48:36.242Z,47.85
2019-03-31T16:51:04.659Z,50.25
2019-03-31T16:53:33.102Z,49.08
2019-03-31T16:56:01.538Z,49.77
2019-03-31T16:58:29.997Z,51.20
2019-03-31T17:00:58.414Z,51.20
2019-03-31T17:03:26.932Z,51.13
2019-03-31T17:05:55.497Z,49.88
2019-03-31T17:08:24.260Z,52.25
2019-03-31T17:10:52.701Z,49.75
2019-03-31T17:13:21.160Z,52.40
2019-03-31T17:15:49.717Z,56.25
2019-03-31T17:18:18.129Z,58.98
2019-03-31T17:20:46.620Z,57.98
2019-03-31T17:23:15.058Z,50.63
2019-03-31T17:25:43.505Z,55.85
2019-03-31T17:28:11.962Z,51.60
2019-03-31T17:30:40.427Z,50.05
2019-03-31T17:33:08.902Z,47.48
2019-03-31T17:35:37.325Z,54.63
2019-03-31T17:38:05.846Z,53.65
2019-03-31T17:40:34.323Z,55.58
2019-03-31T17:43:02.774Z,56.30
2019-03-31T17:45:31.726Z,54.18
2019-03-31T17:48:00.984Z,51.18
2019-03-31T17:50:29.937Z,52.10
2019-03-31T17:52:59.040Z,56.02
2019-03-31T17:55:27.858Z,55.85
2019-03-31T17:57:58.281Z,51.88
2019-03-31T18:00:27.460Z,56.40
2019-03-31T18:02:56.573Z,49.73
2019-03-31T18:05:25.619Z,53.95
2019-03-31T18:07:54.886Z,52.65
2019-03-31T18:10:23.756Z,48.30
2019-03-31T18:12:52.716Z,50.95
2019-03-31T18:15:22.717Z,58.92
2019-03-31T18:17:53.478Z,59.48
2019-03-31T18:20:22.611Z,103.30
2019-03-31T18:22:53.515Z,127.92
2019-03-31T18:25:22.145Z,130.67
2019-03-31T18:27:51.846Z,193.28
2019-03-31T18:30:22.175Z,96.42
2019-03-31T18:32:51.233Z,57.38
2019-03-31T18:35:21.100Z,49.58
2019-03-31T18:37:50.110Z,49.05
2019-03-31T18:40:18.923Z,45.40
2019-03-31T18:42:47.706Z,44.67
2019-03-31T18:45:17.130Z,44.38
2019-03-31T18:47:47.037Z,43.92
2019-03-31T18:50:16.085Z,46.42
2019-03-31T18:52:45.101Z,43.23
2019-03-31T18:55:17.190Z,40.00
2019-03-31T18:57:52.770Z,44.98
2019-03-31T19:00:35.331Z,48.28
2019-03-31T19:03:14.434Z,40.85
2019-03-31T19:06:01.417Z,47.60
2019-03-31T19:08:43.691Z,50.08
2019-03-31T19:11:20.064Z,45.78
2019-03-31T19:14:08.721Z,39.40
2019-03-31T19:16:59.274Z,46.88
2019-03-31T19:19:45.767Z,41.05
2019-03-31T19:22:16.680Z,49.30
2019-03-31T19:24:47.193Z,42.78
2019-03-31T19:27:30.059Z,49.27
2019-03-31T19:30:16.908Z,50.38
2019-03-31T19:32:47.387Z,55.28
2019-03-31T19:35:35.101Z,51.53
2019-03-31T19:38:07.245Z,55.65
2019-03-31T19:40:44.535Z,51.85
2019-03-31T19:43:22.592Z,51.42
2019-03-31T19:46:09.812Z,51.92
2019-03-31T19:48:46.491Z,53.87
2019-03-31T19:51:22.792Z,47.65
2019-03-31T19:54:09.295Z,53.55
2019-03-31T19:56:47.644Z,54.42
2019-03-31T19:59:35.162Z,51.35
2019-03-31T20:02:25.167Z,63.60
2019-03-31T20:04:54.872Z,52.88
2019-03-31T20:07:41.778Z,67.15
2019-03-31T20:10:27.499Z,56.90
2019-03-31T20:12:58.169Z,45.30
2019-03-31T20:15:28.892Z,57.67
2019-03-31T20:18:08.939Z,43.65
2019-03-31T20:20:42.706Z,48.90
2019-03-31T20:23:13.174Z,49.15
2019-03-31T20:25:52.604Z,52.10
2019-03-31T20:28:23.689Z,47.90
2019-03-31T20:31:05.936Z,48.50
2019-03-31T20:33:49.075Z,38.85
2019-03-31T20:36:35.940Z,43.48
2019-03-31T20:39:15.419Z,43.23
2019-03-31T20:41:49.110Z,41.70
2019-03-31T20:44:18.182Z,45.90
2019-03-31T20:46:47.232Z,39.33
2019-03-31T20:49:17.828Z,37.33
2019-03-31T20:51:46.591Z,38.10
2019-03-31T20:54:15.379Z,38.80
2019-03-31T20:56:45.812Z,42.70
2019-03-31T20:59:16.384Z,39.27
2019-03-31T21:01:45.482Z,42.83
2019-03-31T21:04:14.531Z,38.75
2019-03-31T21:06:44.407Z,42.17
2019-03-31T21:09:13.592Z,35.25
2019-03-31T21:11:43.379Z,57.73
2019-03-31T21:14:14.804Z,35.20
2019-03-31T21:16:43.752Z,36.58
2019-03-31T21:19:12.887Z,34.35
2019-03-31T21:21:44.736Z,30.52
2019-03-31T21:24:15.022Z,30.40
2019-03-31T21:26:44.020Z,30.75
2019-03-31T21:29:13.436Z,28.73
2019-03-31T21:31:42.374Z,34.63
2019-03-31T21:34:11.465Z,32.15
2019-03-31T21:36:41.927Z,38.67
2019-03-31T21:39:10.871Z,31.87
2019-03-31T21:41:39.905Z,29.20
2019-03-31T21:44:08.999Z,29.12
2019-03-31T21:46:38.494Z,28.80
2019-03-31T21:49:10.359Z,24.85
2019-03-31T21:51:40.931Z,25.32
2019-03-31T21:54:10.226Z,23.80
2019-03-31T21:56:39.549Z,22.22
2019-03-31T21:59:08.537Z,17.40
2019-03-31T22:01:37.236Z,18.32
2019-03-31T22:04:06.315Z,20.37
2019-03-31T22:06:35.336Z,19.50
2019-03-31T22:09:06.728Z,19.75
2019-03-31T22:11:35.704Z,21.40
2019-03-31T22:14:06.034Z,20.57
2019-03-31T22:16:35.056Z,19.55
2019-03-31T22:19:04.190Z,18.40
2019-03-31T22:21:34.299Z,21.50
2019-03-31T22:24:03.327Z,21.37
2019-03-31T22:26:32.865Z,20.25
2019-03-31T22:29:02.895Z,19.37
2019-03-31T22:31:31.827Z,18.90
2019-03-31T22:34:01.403Z,20.77
2019-03-31T22:36:30.362Z,17.75
2019-03-31T22:38:59.328Z,20.00
2019-03-31T22:41:28.684Z,16.12
2019-03-31T22:43:57.592Z,20.90
2019-03-31T22:46:26.951Z,18.60
2019-03-31T22:48:56.047Z,21.40
2019-03-31T22:51:25.110Z,17.87
2019-03-31T22:53:53.929Z,21.23
2019-03-31T22:56:23.040Z,17.95
2019-03-31T22:58:52.898Z,17.15
2019-03-31T23:01:23.202Z,19.98
2019-03-31T23:03:52.083Z,21.37
2019-03-31T23:06:21.011Z,18.30
2019-03-31T23:08:49.789Z,18.65
2019-03-31T23:11:18.709Z,17.92
2019-03-31T23:13:47.722Z,17.70
2019-03-31T23:16:16.796Z,18.48
2019-03-31T23:18:48.151Z,19.92
2019-03-31T23:21:18.014Z,17.37
2019-03-31T23:23:46.802Z,18.62
2019-03-31T23:26:16.847Z,15.25
2019-03-31T23:28:49.780Z,19.20
2019-03-31T23:31:18.839Z,23.12
2019-03-31T23:33:48.558Z,19.62
2019-03-31T23:36:17.520Z,20.27
2019-03-31T23:38:46.517Z,18.98
2019-03-31T23:41:15.562Z,20.92
2019-03-31T23:43:44.751Z,23.15
2019-03-31T23:46:13.847Z,21.57
2019-03-31T23:48:42.815Z,18.02
2019-03-31T23:51:12.959Z,18.98
2019-03-31T23:53:44.103Z,20.23
2019-03-31T23:56:14.224Z,21.82
2019-03-31T23:58:45.161Z,21.17
